createdAt,value
2018-11-03T00:01:51.622Z,5.78
2018-11-03T00:06:54.997Z,5.00
2018-11-03T00:11:58.482Z,5.80
2018-11-03T00:17:01.762Z,5.72
2018-11-03T00:22:05.231Z,4.00
2018-11-03T00:27:08.720Z,4.10
2018-11-03T00:32:12.344Z,6.00
2018-11-03T00:37:15.673Z,4.90
2018-11-03T00:42:19.124Z,6.17
2018-11-03T00:47:22.552Z,5.90
2018-11-03T00:52:26.235Z,4.80
2018-11-03T00:57:29.631Z,4.60
2018-11-03T01:02:33.009Z,5.47
2018-11-03T01:07:37.154Z,5.58
2018-11-03T01:12:41.032Z,5.42
2018-11-03T01:17:44.647Z,7.65
2018-11-03T01:22:48.187Z,6.90
2018-11-03T01:27:51.764Z,6.45
2018-11-03T01:32:55.201Z,5.40
2018-11-03T01:37:58.648Z,4.97
2018-11-03T01:43:02.329Z,5.87
2018-11-03T01:48:05.973Z,4.62
2018-11-03T01:53:09.290Z,5.23
2018-11-03T01:58:12.685Z,5.20
2018-11-03T02:03:17.234Z,5.60
2018-11-03T02:08:20.730Z,5.65
2018-11-03T02:13:24.170Z,5.87
2018-11-03T02:18:27.662Z,5.40
2018-11-03T02:23:31.127Z,5.20
2018-11-03T02:28:35.541Z,4.90
2018-11-03T02:33:38.886Z,6.00
2018-11-03T02:38:42.377Z,5.70
2018-11-03T02:43:45.842Z,6.85
2018-11-03T02:48:49.132Z,6.13
2018-11-03T02:53:53.465Z,6.10
2018-11-03T02:58:57.165Z,6.35
2018-11-03T03:04:00.660Z,5.85
2018-11-03T03:09:04.656Z,5.63
2018-11-03T03:14:13.231Z,6.62
2018-11-03T03:19:16.677Z,7.53
2018-11-03T03:24:20.305Z,7.15
2018-11-03T03:29:23.812Z,6.45
2018-11-03T03:34:27.596Z,6.90
2018-11-03T03:39:30.953Z,6.65
2018-11-03T03:44:34.451Z,7.55
2018-11-03T03:49:37.859Z,8.20
2018-11-03T03:54:41.313Z,9.78
2018-11-03T03:59:45.641Z,8.80
2018-11-03T04:04:49.077Z,9.90
2018-11-03T04:09:52.533Z,8.20
2018-11-03T04:14:56.579Z,8.57
2018-11-03T04:19:59.997Z,7.73
2018-11-03T04:25:03.561Z,9.00
2018-11-03T04:30:09.718Z,9.63
2018-11-03T04:35:13.153Z,10.53
2018-11-03T04:40:16.617Z,9.80
2018-11-03T04:45:20.107Z,9.30
2018-11-03T04:50:23.560Z,10.08
2018-11-03T04:55:27.509Z,11.38
2018-11-03T05:00:36.285Z,12.03
2018-11-03T05:05:42.658Z,13.20
2018-11-03T05:10:46.036Z,11.20
2018-11-03T05:15:49.464Z,12.78
2018-11-03T05:20:53.573Z,11.45
2018-11-03T05:25:56.966Z,12.13
2018-11-03T05:31:00.614Z,10.90
2018-11-03T05:36:04.054Z,10.58
2018-11-03T05:41:07.569Z,9.93
2018-11-03T05:46:10.983Z,11.28
2018-11-03T05:51:14.288Z,12.37
2018-11-03T05:56:17.668Z,11.75
2018-11-03T06:01:21.178Z,11.90
2018-11-03T06:06:25.474Z,11.50
2018-11-03T06:11:28.935Z,13.67
2018-11-03T06:16:42.403Z,12.90
2018-11-03T06:21:47.661Z,12.78
2018-11-03T06:26:51.145Z,9.90
2018-11-03T06:31:54.636Z,11.47
2018-11-03T06:36:58.841Z,12.07
2018-11-03T06:42:02.888Z,11.88
2018-11-03T06:47:06.239Z,11.90
2018-11-03T06:52:09.668Z,13.30
2018-11-03T06:57:12.956Z,12.30
2018-11-03T07:02:16.370Z,14.20
2018-11-03T07:07:19.762Z,13.48
2018-11-03T07:12:23.399Z,13.25
2018-11-03T07:17:26.805Z,14.53
2018-11-03T07:22:30.171Z,15.93
2018-11-03T07:33:13.351Z,14.63
2018-11-03T07:38:20.063Z,15.08
2018-11-03T07:43:27.186Z,14.85
2018-11-03T07:48:31.741Z,15.43
2018-11-03T07:53:35.122Z,15.48
2018-11-03T07:58:38.880Z,15.18
2018-11-03T08:03:42.402Z,15.03
2018-11-03T08:08:52.323Z,14.30
2018-11-03T08:13:55.930Z,15.63
2018-11-03T08:18:59.700Z,14.50
2018-11-03T08:24:04.358Z,14.47
2018-11-03T08:29:07.863Z,14.68
2018-11-03T08:34:11.704Z,15.30
2018-11-03T08:39:15.932Z,15.00
2018-11-03T08:44:21.882Z,13.88
2018-11-03T08:49:25.855Z,13.32
2018-11-03T08:54:30.373Z,14.25
2018-11-03T08:59:34.106Z,14.65
2018-11-03T09:04:37.680Z,13.38
2018-11-03T09:09:44.216Z,14.13
2018-11-03T09:14:48.217Z,14.40
2018-11-03T09:19:52.436Z,14.77
2018-11-03T09:25:00.929Z,15.28
2018-11-03T09:30:05.074Z,15.08
2018-11-03T09:35:11.427Z,14.78
2018-11-03T09:40:22.223Z,14.10
2018-11-03T09:45:25.749Z,13.70
2018-11-03T09:50:30.684Z,14.00
2018-11-03T09:55:34.254Z,14.83
2018-11-03T10:00:37.811Z,14.20
2018-11-03T10:05:41.287Z,14.33
2018-11-03T10:10:44.898Z,13.35
2018-11-03T10:15:49.204Z,14.23
2018-11-03T10:20:58.758Z,12.30
2018-11-03T10:26:18.837Z,13.40
2018-11-03T10:31:22.406Z,13.50
2018-11-03T10:36:29.386Z,12.70
2018-11-03T10:46:47.618Z,13.10
2018-11-03T10:51:55.354Z,13.80
2018-11-03T10:56:58.888Z,14.28
2018-11-03T11:02:07.689Z,13.47
2018-11-03T11:07:18.224Z,11.80
2018-11-03T11:12:26.880Z,13.22
2018-11-03T11:17:30.372Z,13.48
2018-11-03T11:22:33.822Z,13.60
2018-11-03T11:27:37.288Z,12.90
2018-11-03T11:32:41.122Z,13.65
2018-11-03T11:37:44.594Z,13.53
2018-11-03T11:42:48.296Z,13.57
2018-11-03T11:47:51.791Z,13.85
2018-11-03T11:52:55.234Z,11.77
2018-11-03T11:57:58.946Z,14.00
2018-11-03T12:03:02.450Z,12.88
2018-11-03T12:08:06.223Z,13.28
2018-11-03T12:13:09.656Z,13.85
2018-11-03T12:18:13.023Z,12.80
2018-11-03T12:23:16.411Z,12.17
2018-11-03T12:28:20.690Z,11.90
2018-11-03T12:33:24.254Z,13.90
2018-11-03T12:38:27.734Z,13.40
2018-11-03T12:43:31.236Z,12.70
2018-11-03T12:48:39.573Z,12.80
2018-11-03T12:53:43.029Z,13.40
2018-11-03T12:58:46.573Z,12.78
2018-11-03T13:03:49.991Z,13.10
2018-11-03T13:08:53.486Z,12.70
2018-11-03T13:13:57.079Z,12.50
2018-11-03T13:19:00.561Z,12.65
2018-11-03T13:24:10.772Z,12.28
2018-11-03T13:29:14.219Z,12.30
2018-11-03T13:34:17.700Z,12.00
2018-11-03T13:39:21.150Z,12.05
2018-11-03T13:44:24.474Z,11.30
2018-11-03T13:49:27.942Z,11.48
2018-11-03T13:54:31.784Z,11.40
2018-11-03T13:59:36.727Z,12.30
2018-11-03T14:04:40.153Z,12.03
2018-11-03T14:09:43.629Z,11.40
2018-11-03T14:14:47.379Z,11.43
2018-11-03T14:19:50.743Z,10.63
2018-11-03T14:24:54.097Z,10.40
2018-11-03T14:29:57.560Z,10.60
2018-11-03T14:35:01.645Z,10.40
2018-11-03T14:40:06.184Z,10.38
2018-11-03T14:45:10.562Z,11.27
2018-11-03T14:50:13.965Z,10.80
2018-11-03T14:55:17.368Z,10.70
2018-11-03T15:00:20.770Z,9.60
2018-11-03T15:05:25.235Z,11.10
2018-11-03T15:10:38.517Z,9.78
2018-11-03T15:15:45.891Z,10.43
2018-11-03T15:20:49.499Z,9.53
2018-11-03T15:25:53.096Z,10.43
2018-11-03T15:30:56.591Z,10.58
2018-11-03T15:36:01.116Z,8.40
2018-11-03T15:41:04.793Z,10.38
2018-11-03T15:46:10.277Z,8.45
2018-11-03T15:51:14.497Z,9.00
2018-11-03T15:56:18.572Z,7.87
2018-11-03T16:01:22.757Z,9.33
2018-11-03T16:06:27.923Z,8.60
2018-11-03T16:11:35.157Z,10.40
2018-11-03T16:16:40.799Z,8.88
2018-11-03T16:22:02.293Z,8.38
2018-11-03T16:27:07.536Z,7.60
2018-11-03T16:37:22.966Z,8.40
2018-11-03T16:42:26.486Z,9.03
2018-11-03T17:10:05.693Z,11.33
2018-11-03T17:15:09.851Z,15.37
2018-11-03T17:20:22.892Z,13.22
2018-11-03T17:25:29.680Z,16.00
2018-11-03T17:36:04.495Z,18.30
2018-11-03T17:41:14.251Z,14.07
2018-11-03T17:46:19.806Z,12.23
2018-11-03T18:07:59.227Z,10.55
2018-11-03T18:13:09.535Z,9.33
2018-11-03T18:18:15.172Z,11.53
2018-11-03T18:28:46.921Z,10.20
2018-11-03T18:33:50.594Z,10.37
2018-11-03T18:38:57.160Z,8.58
2018-11-03T18:44:01.541Z,10.20
2018-11-03T18:49:06.614Z,10.65
2018-11-03T18:54:10.953Z,9.60
2018-11-03T18:59:15.520Z,10.55
2018-11-03T19:04:20.273Z,12.15
2018-11-03T19:09:23.895Z,10.43
2018-11-03T19:25:53.208Z,13.38
2018-11-03T19:31:14.602Z,12.60
2018-11-03T19:36:20.996Z,11.78
2018-11-03T19:41:28.654Z,13.38
2018-11-03T19:46:35.669Z,12.37
2018-11-03T19:51:46.417Z,12.30
2018-11-03T19:56:58.269Z,11.85
2018-11-03T20:02:11.355Z,11.70
2018-11-03T20:07:35.498Z,12.55
2018-11-03T20:18:08.504Z,17.60
2018-11-03T20:23:14.770Z,13.80
2018-11-03T20:39:24.829Z,12.47
2018-11-03T20:44:32.266Z,12.28
2018-11-03T20:49:52.549Z,10.20
2018-11-03T20:55:02.889Z,12.25
2018-11-03T21:00:17.115Z,12.23
2018-11-03T21:05:30.460Z,11.60
2018-11-03T21:10:43.644Z,12.53
2018-11-03T21:16:01.054Z,11.78
2018-11-03T21:21:40.342Z,12.03
2018-11-03T21:27:22.216Z,13.22
2018-11-03T21:32:31.049Z,15.20
2018-11-03T21:37:54.710Z,14.15
2018-11-03T21:43:34.171Z,14.13
2018-11-03T21:48:40.718Z,16.65
2018-11-03T21:53:48.023Z,16.50
2018-11-03T21:58:53.067Z,17.48
2018-11-03T22:03:56.536Z,17.23
2018-11-03T22:09:11.624Z,15.60
2018-11-03T22:51:05.746Z,16.65
2018-11-03T23:02:50.661Z,15.00
2018-11-03T23:08:07.574Z,15.40
2018-11-03T23:13:56.908Z,17.32
2018-11-03T23:19:05.152Z,15.70
2018-11-03T23:24:11.061Z,15.75
2018-11-03T23:29:21.559Z,16.87
2018-11-03T23:34:35.546Z,16.95
2018-11-03T23:56:50.666Z,18.00
